createdAt,value
2018-05-26T00:00:31.406Z,98519.98
2018-05-26T00:02:58.894Z,98524.93
2018-05-26T00:05:26.407Z,98525.05
2018-05-26T00:07:53.963Z,98522.55
2018-05-26T00:10:21.446Z,98523.61
2018-05-26T00:12:48.945Z,98525.81
2018-05-26T00:15:16.460Z,98527.76
2018-05-26T00:17:43.949Z,98528.03
2018-05-26T00:20:11.426Z,98532.91
2018-05-26T00:22:38.908Z,98535.36
2018-05-26T00:25:06.384Z,98534.73
2018-05-26T00:27:33.911Z,98536.84
2018-05-26T00:30:01.402Z,98534.87
2018-05-26T00:32:28.888Z,98529.83
2018-05-26T00:34:56.381Z,98537.46
2018-05-26T00:37:23.862Z,98535.40
2018-05-26T00:39:51.324Z,98537.83
2018-05-26T00:42:18.815Z,98541.72
2018-05-26T00:44:46.292Z,98544.28
2018-05-26T00:47:13.775Z,98550.85
2018-05-26T00:49:41.254Z,98543.35
2018-05-26T00:52:08.759Z,98546.44
2018-05-26T00:54:36.220Z,98545.58
2018-05-26T00:57:03.680Z,98541.94
2018-05-26T00:59:31.182Z,98545.31
2018-05-26T01:01:58.637Z,98542.24
2018-05-26T01:04:26.135Z,98543.42
2018-05-26T01:06:53.609Z,98546.04
2018-05-26T01:09:21.113Z,98536.96
2018-05-26T01:11:48.589Z,98522.98
2018-05-26T01:14:16.072Z,98529.42
2018-05-26T01:16:43.559Z,98529.92
2018-05-26T01:19:11.046Z,98528.63
2018-05-26T01:21:38.532Z,98530.17
2018-05-26T01:24:06.036Z,98525.59
2018-05-26T01:26:33.555Z,98525.23
2018-05-26T01:29:01.030Z,98527.52
2018-05-26T01:31:28.488Z,98532.59
2018-05-26T01:33:55.970Z,98530.59
2018-05-26T01:36:23.448Z,98529.63
2018-05-26T01:38:50.947Z,98527.27
2018-05-26T01:41:18.431Z,98526.09
2018-05-26T01:43:45.933Z,98522.95
2018-05-26T01:46:13.411Z,98522.52
2018-05-26T01:48:40.884Z,98521.09
2018-05-26T01:51:08.340Z,98523.23
2018-05-26T01:53:35.801Z,98518.73
2018-05-26T01:56:03.329Z,98518.16
2018-05-26T01:58:30.823Z,98517.41
2018-05-26T02:00:58.306Z,98514.91
2018-05-26T02:03:25.787Z,98517.30
2018-05-26T02:05:53.302Z,98520.95
2018-05-26T02:08:20.778Z,98513.83
2018-05-26T02:10:48.245Z,98514.66
2018-05-26T02:13:15.726Z,98513.86
2018-05-26T02:15:43.254Z,98516.04
2018-05-26T02:18:10.716Z,98514.39
2018-05-26T02:20:38.167Z,98514.95
2018-05-26T02:23:05.650Z,98518.77
2018-05-26T02:25:33.199Z,98518.15
2018-05-26T02:28:00.691Z,98514.22
2018-05-26T02:30:28.187Z,98511.31
2018-05-26T02:32:55.659Z,98524.24
2018-05-26T02:35:23.146Z,98525.77
2018-05-26T02:37:50.627Z,98529.34
2018-05-26T02:40:18.127Z,98532.69
2018-05-26T02:42:45.611Z,98536.81
2018-05-26T02:45:13.119Z,98530.80
2018-05-26T02:47:40.601Z,98531.94
2018-05-26T02:50:08.154Z,98533.10
2018-05-26T02:52:35.606Z,98530.90
2018-05-26T02:55:03.076Z,98533.18
2018-05-26T02:57:30.555Z,98542.48
2018-05-26T02:59:58.249Z,98546.88
2018-05-26T03:02:25.748Z,98553.75
2018-05-26T03:04:58.941Z,98543.95
2018-05-26T03:07:32.021Z,98543.08
2018-05-26T03:10:05.029Z,98539.72
2018-05-26T03:12:37.981Z,98550.05
2018-05-26T03:15:05.034Z,98546.13
2018-05-26T03:17:42.443Z,98553.02
2018-05-26T03:20:09.958Z,98549.79
2018-05-26T03:22:37.455Z,98550.31
2018-05-26T03:25:04.934Z,98546.05
2018-05-26T03:27:32.401Z,98555.40
2018-05-26T03:29:59.900Z,98547.15
2018-05-26T03:32:27.389Z,98548.80
2018-05-26T03:34:54.902Z,98552.99
2018-05-26T03:37:22.385Z,98550.48
2018-05-26T03:39:49.862Z,98552.06
2018-05-26T03:42:17.364Z,98549.03
2018-05-26T03:44:44.844Z,98550.94
2018-05-26T03:47:12.354Z,98552.03
2018-05-26T03:49:39.823Z,98551.30
2018-05-26T03:52:07.290Z,98556.81
2018-05-26T03:54:46.779Z,98556.58
2018-05-26T04:02:55.659Z,98569.31
2018-05-26T04:11:07.070Z,98573.77
2018-05-26T04:13:34.544Z,98575.11
2018-05-26T04:16:02.043Z,98571.09
2018-05-26T04:18:29.548Z,98574.53
2018-05-26T04:20:57.026Z,98573.52
2018-05-26T04:23:24.501Z,98575.77
2018-05-26T04:25:52.060Z,98579.96
2018-05-26T04:31:10.107Z,98587.77
2018-05-26T04:33:37.603Z,98584.72
2018-05-26T04:36:05.081Z,98592.13
2018-05-26T04:38:32.803Z,98591.73
2018-05-26T04:41:00.285Z,98593.22
2018-05-26T04:43:27.800Z,98598.17
2018-05-26T04:45:55.279Z,98592.02
2018-05-26T04:48:22.844Z,98594.27
2018-05-26T04:50:50.334Z,98592.69
2018-05-26T04:53:18.065Z,98596.63
2018-05-26T04:55:45.565Z,98600.88
2018-05-26T04:58:13.061Z,98606.20
2018-05-26T05:00:40.625Z,98607.33
2018-05-26T05:03:08.101Z,98614.75
2018-05-26T05:05:35.612Z,98608.59
2018-05-26T05:08:03.100Z,98618.03
2018-05-26T05:10:30.662Z,98610.97
2018-05-26T05:12:58.280Z,98612.20
2018-05-26T05:15:25.754Z,98614.60
2018-05-26T05:17:53.258Z,98613.33
2018-05-26T05:20:44.441Z,98615.02
2018-05-26T05:26:02.429Z,98616.48
2018-05-26T05:28:29.924Z,98619.88
2018-05-26T05:30:57.401Z,98614.73
2018-05-26T05:33:24.863Z,98620.04
2018-05-26T05:35:52.522Z,98620.73
2018-05-26T05:38:20.123Z,98623.23
2018-05-26T05:40:47.616Z,98620.15
2018-05-26T05:43:15.093Z,98619.55
2018-05-26T05:45:42.574Z,98617.44
2018-05-26T05:48:10.097Z,98623.89
2018-05-26T05:50:39.199Z,98629.00
2018-05-26T05:53:06.671Z,98621.36
2018-05-26T05:55:35.987Z,98625.59
2018-05-26T05:58:03.482Z,98632.13
2018-05-26T06:00:32.738Z,98631.87
2018-05-26T06:05:50.778Z,98632.35
2018-05-26T06:08:18.279Z,98626.31
2018-05-26T06:10:45.787Z,98627.25
2018-05-26T06:13:13.373Z,98632.20
2018-05-26T06:15:40.858Z,98627.22
2018-05-26T06:18:08.353Z,98622.63
2018-05-26T06:20:35.885Z,98625.66
2018-05-26T06:23:03.349Z,98630.28
2018-05-26T06:25:30.811Z,98633.70
2018-05-26T06:27:58.373Z,98642.34
2018-05-26T06:30:25.875Z,98642.34
2018-05-26T06:33:03.376Z,98644.60
2018-05-26T06:35:30.866Z,98646.30
2018-05-26T06:37:58.368Z,98641.13
2018-05-26T06:40:25.981Z,98641.20
2018-05-26T06:42:54.965Z,98643.98
2018-05-26T06:45:25.148Z,98641.80
2018-05-26T06:48:03.521Z,98648.72
2018-05-26T06:50:30.997Z,98645.82
2018-05-26T06:52:58.464Z,98645.64
2018-05-26T06:55:25.938Z,98642.91
2018-05-26T06:57:53.439Z,98643.19
2018-05-26T07:00:20.968Z,98643.39
2018-05-26T07:02:48.400Z,98635.37
2018-05-26T07:05:15.871Z,98636.78
2018-05-26T07:07:43.335Z,98631.66
2018-05-26T07:10:10.803Z,98631.70
2018-05-26T07:12:38.269Z,98639.91
2018-05-26T07:15:05.905Z,98646.70
2018-05-26T07:17:33.456Z,98642.44
2018-05-26T07:20:00.972Z,98640.79
2018-05-26T07:22:28.439Z,98636.83
2018-05-26T07:24:55.964Z,98639.31
2018-05-26T07:27:23.442Z,98642.86
2018-05-26T07:29:50.956Z,98641.50
2018-05-26T07:32:18.539Z,98635.55
2018-05-26T07:34:46.027Z,98633.41
2018-05-26T07:37:13.533Z,98640.02
2018-05-26T07:39:41.024Z,98638.23
2018-05-26T07:42:08.482Z,98634.41
2018-05-26T07:44:35.974Z,98632.64
2018-05-26T07:47:03.480Z,98639.61
2018-05-26T07:49:31.016Z,98630.83
2018-05-26T07:51:58.489Z,98640.04
2018-05-26T07:54:26.037Z,98636.75
2018-05-26T07:56:53.624Z,98640.10
2018-05-26T07:59:21.156Z,98634.72
2018-05-26T08:01:48.701Z,98637.77
2018-05-26T08:04:16.173Z,98639.66
2018-05-26T08:06:43.641Z,98648.70
2018-05-26T08:09:11.112Z,98649.19
2018-05-26T08:11:38.603Z,98644.77
2018-05-26T08:14:06.189Z,98643.39
2018-05-26T08:16:33.710Z,98643.23
2018-05-26T08:19:01.193Z,98645.97
2018-05-26T08:21:28.696Z,98651.99
2018-05-26T08:23:56.184Z,98642.67
2018-05-26T08:26:23.651Z,98647.20
2018-05-26T08:28:51.149Z,98651.77
2018-05-26T08:31:18.644Z,98651.33
2018-05-26T08:33:46.251Z,98651.92
2018-05-26T08:36:13.685Z,98654.39
2018-05-26T08:38:41.165Z,98660.81
2018-05-26T08:41:08.624Z,98656.95
2018-05-26T08:43:36.122Z,98670.28
2018-05-26T08:46:03.662Z,98667.69
2018-05-26T08:48:31.411Z,98672.05
2018-05-26T08:50:58.883Z,98663.61
2018-05-26T08:53:26.340Z,98665.00
2018-05-26T08:55:53.997Z,98667.22
2018-05-26T08:58:21.499Z,98665.67
2018-05-26T09:00:48.999Z,98673.34
2018-05-26T09:03:16.501Z,98670.11
2018-05-26T09:05:43.964Z,98667.37
2018-05-26T09:08:11.425Z,98673.39
2018-05-26T09:10:38.959Z,98666.19
2018-05-26T09:13:06.511Z,98662.21
2018-05-26T09:15:33.970Z,98662.64
2018-05-26T09:18:01.534Z,98662.27
2018-05-26T09:20:29.135Z,98663.12
2018-05-26T09:22:56.613Z,98665.23
2018-05-26T09:25:24.149Z,98659.99
2018-05-26T09:27:51.603Z,98658.41
2018-05-26T09:30:19.120Z,98656.03
2018-05-26T09:32:46.607Z,98656.05
2018-05-26T09:35:14.085Z,98651.81
2018-05-26T09:37:41.572Z,98657.73
2018-05-26T09:40:09.107Z,98654.72
2018-05-26T09:42:36.591Z,98658.41
2018-05-26T09:45:04.068Z,98658.97
2018-05-26T09:47:31.528Z,98664.05
2018-05-26T09:49:59.028Z,98665.33
2018-05-26T09:52:26.496Z,98655.48
2018-05-26T09:54:53.978Z,98657.44
2018-05-26T09:57:21.464Z,98655.42
2018-05-26T09:59:48.952Z,98656.38
2018-05-26T10:02:16.412Z,98658.44
2018-05-26T10:04:43.872Z,98657.02
2018-05-26T10:07:12.557Z,98654.92
2018-05-26T10:09:40.021Z,98654.59
2018-05-26T10:12:07.522Z,98651.98
2018-05-26T10:14:35.021Z,98650.02
2018-05-26T10:17:02.516Z,98646.75
2018-05-26T10:19:29.989Z,98650.33
2018-05-26T10:21:57.458Z,98644.72
2018-05-26T10:24:24.941Z,98649.75
2018-05-26T10:26:52.412Z,98643.16
2018-05-26T10:29:20.005Z,98644.95
2018-05-26T10:31:47.497Z,98644.19
2018-05-26T10:34:15.026Z,98639.30
2018-05-26T10:36:42.504Z,98640.78
2018-05-26T10:39:09.995Z,98636.94
2018-05-26T10:41:37.462Z,98642.16
2018-05-26T10:44:04.960Z,98644.13
2018-05-26T10:46:32.413Z,98647.48
2018-05-26T10:48:59.913Z,98643.22
2018-05-26T10:51:27.394Z,98645.48
2018-05-26T10:53:57.379Z,98644.16
2018-05-26T10:56:25.621Z,98641.63
2018-05-26T10:58:53.154Z,98642.74
2018-05-26T11:01:20.658Z,98655.83
2018-05-26T11:03:48.258Z,98653.13
2018-05-26T11:06:15.744Z,98656.73
2018-05-26T11:08:43.269Z,98666.05
2018-05-26T11:11:10.757Z,98662.97
2018-05-26T11:13:38.251Z,98660.72
2018-05-26T11:16:05.742Z,98661.02
2018-05-26T11:18:33.238Z,98659.00
2018-05-26T11:21:00.701Z,98654.25
2018-05-26T11:23:28.185Z,98648.89
2018-05-26T11:25:55.734Z,98651.00
2018-05-26T11:28:23.243Z,98648.11
2018-05-26T11:30:50.993Z,98651.47
2018-05-26T11:33:18.434Z,98649.64
2018-05-26T11:35:45.896Z,98644.42
2018-05-26T11:38:13.377Z,98646.63
2018-05-26T11:40:40.923Z,98640.78
2018-05-26T11:43:08.384Z,98636.64
2018-05-26T11:45:35.941Z,98637.16
2018-05-26T11:48:03.400Z,98636.75
2018-05-26T11:50:30.879Z,98644.16
2018-05-26T11:52:58.672Z,98644.51
2018-05-26T11:55:26.144Z,98641.81
2018-05-26T11:57:53.605Z,98645.59
2018-05-26T12:00:21.194Z,98643.30
2018-05-26T12:02:48.657Z,98644.67
2018-05-26T12:05:16.160Z,98645.91
2018-05-26T12:07:43.643Z,98640.51
2018-05-26T12:10:11.232Z,98636.87
2018-05-26T12:12:38.788Z,98637.17
2018-05-26T12:15:06.250Z,98639.94
2018-05-26T12:17:33.751Z,98641.95
2018-05-26T12:20:01.213Z,98640.17
2018-05-26T12:22:28.676Z,98637.34
2018-05-26T12:24:56.175Z,98641.30
2018-05-26T12:27:23.651Z,98632.55
2018-05-26T12:29:51.121Z,98631.06
2018-05-26T12:32:18.596Z,98631.11
2018-05-26T12:34:46.089Z,98628.06
2018-05-26T12:37:13.583Z,98622.77
2018-05-26T12:39:41.058Z,98632.48
2018-05-26T12:42:08.556Z,98629.80
2018-05-26T12:44:36.024Z,98625.31
2018-05-26T12:47:03.496Z,98628.19
2018-05-26T12:49:30.992Z,98624.05
2018-05-26T12:51:58.473Z,98617.41
2018-05-26T12:54:26.057Z,98622.54
2018-05-26T12:56:53.508Z,98619.85
2018-05-26T12:59:21.009Z,98621.23
2018-05-26T13:01:48.471Z,98613.78
2018-05-26T13:04:15.946Z,98611.19
2018-05-26T13:06:43.417Z,98618.45
2018-05-26T13:09:10.977Z,98615.08
2018-05-26T13:11:38.468Z,98613.84
2018-05-26T13:14:05.952Z,98613.34
2018-05-26T13:16:33.408Z,98615.02
2018-05-26T13:19:00.906Z,98612.20
2018-05-26T13:21:28.372Z,98602.96
2018-05-26T13:23:55.929Z,98599.89
2018-05-26T13:26:23.528Z,98598.50
2018-05-26T13:28:51.010Z,98595.88
2018-05-26T13:31:18.556Z,98594.94
2018-05-26T13:33:46.021Z,98599.44
2018-05-26T13:36:13.501Z,98600.22
2018-05-26T13:38:41.031Z,98602.22
2018-05-26T13:41:08.497Z,98598.23
2018-05-26T13:43:36.008Z,98604.73
2018-05-26T13:46:03.499Z,98603.67
2018-05-26T13:48:30.985Z,98598.00
2018-05-26T13:50:58.479Z,98603.70
2018-05-26T13:53:26.023Z,98599.98
2018-05-26T13:55:53.488Z,98600.20
2018-05-26T13:58:20.913Z,98599.89
2018-05-26T14:00:48.375Z,98603.16
2018-05-26T14:03:15.883Z,98608.67
2018-05-26T14:05:43.364Z,98602.35
2018-05-26T14:08:10.840Z,98605.59
2018-05-26T14:10:38.401Z,98597.52
2018-05-26T14:13:05.882Z,98595.45
2018-05-26T14:15:33.380Z,98594.79
2018-05-26T14:18:00.941Z,98589.88
2018-05-26T14:20:28.495Z,98587.34
2018-05-26T14:22:55.985Z,98587.70
2018-05-26T14:25:23.456Z,98595.39
2018-05-26T14:27:50.957Z,98590.20
2018-05-26T14:30:18.515Z,98592.53
2018-05-26T14:32:46.095Z,98594.06
2018-05-26T14:35:13.629Z,98593.14
2018-05-26T14:37:41.094Z,98588.55
2018-05-26T14:40:08.574Z,98583.33
2018-05-26T14:42:36.019Z,98584.73
2018-05-26T14:45:03.475Z,98585.59
2018-05-26T14:47:30.932Z,98573.58
2018-05-26T14:49:58.424Z,98580.81
2018-05-26T14:52:25.891Z,98579.88
2018-05-26T14:54:53.394Z,98581.42
2018-05-26T14:57:20.947Z,98584.71
2018-05-26T14:59:48.403Z,98589.17
2018-05-26T15:02:15.890Z,98590.55
2018-05-26T15:04:43.367Z,98589.66
2018-05-26T15:07:10.907Z,98583.20
2018-05-26T15:09:38.383Z,98583.45
2018-05-26T15:12:05.884Z,98584.35
2018-05-26T15:14:33.341Z,98580.11
2018-05-26T15:17:00.790Z,98581.19
2018-05-26T15:19:28.245Z,98580.61
2018-05-26T15:21:55.705Z,98587.16
2018-05-26T15:24:23.175Z,98577.17
2018-05-26T15:26:50.644Z,98570.99
2018-05-26T15:29:18.147Z,98568.09
2018-05-26T15:31:45.636Z,98564.18
2018-05-26T15:34:13.182Z,98565.06
2018-05-26T15:36:40.663Z,98563.69
2018-05-26T15:39:08.160Z,98561.27
2018-05-26T15:41:35.647Z,98559.14
2018-05-26T15:44:03.131Z,98558.62
2018-05-26T15:46:30.580Z,98559.05
2018-05-26T15:48:58.064Z,98557.92
2018-05-26T15:51:25.532Z,98553.63
2018-05-26T15:53:53.111Z,98553.44
2018-05-26T15:56:20.590Z,98557.54
2018-05-26T15:58:48.058Z,98546.73
2018-05-26T16:01:15.548Z,98544.06
2018-05-26T16:03:43.015Z,98546.81
2018-05-26T16:06:10.500Z,98545.25
2018-05-26T16:08:37.976Z,98540.13
2018-05-26T16:11:05.473Z,98529.58
2018-05-26T16:13:32.929Z,98526.75
2018-05-26T16:16:00.400Z,98527.51
2018-05-26T16:18:27.970Z,98517.77
2018-05-26T16:20:55.441Z,98529.73
2018-05-26T16:23:22.938Z,98530.64
2018-05-26T16:25:50.392Z,98522.89
2018-05-26T16:28:17.877Z,98530.77
2018-05-26T16:30:45.348Z,98521.02
2018-05-26T16:33:12.885Z,98523.63
2018-05-26T16:35:40.348Z,98527.47
2018-05-26T16:38:07.840Z,98527.02
2018-05-26T16:40:35.350Z,98520.95
2018-05-26T16:43:02.834Z,98519.98
2018-05-26T16:45:30.306Z,98521.93
2018-05-26T16:47:57.862Z,98522.13
2018-05-26T16:50:25.324Z,98522.35
2018-05-26T16:52:52.778Z,98523.36
2018-05-26T16:55:20.323Z,98519.69
2018-05-26T16:57:47.787Z,98527.00
2018-05-26T17:00:15.255Z,98526.61
2018-05-26T17:02:42.816Z,98522.86
2018-05-26T17:05:10.279Z,98523.26
2018-05-26T17:07:38.095Z,98527.19
2018-05-26T17:10:05.589Z,98527.84
2018-05-26T17:12:33.065Z,98527.69
2018-05-26T17:15:00.552Z,98527.38
2018-05-26T17:17:28.145Z,98527.79
2018-05-26T17:19:55.623Z,98526.61
2018-05-26T17:22:23.188Z,98529.30
2018-05-26T17:24:50.678Z,98532.02
2018-05-26T17:27:18.158Z,98537.81
2018-05-26T17:29:45.659Z,98536.66
2018-05-26T17:32:13.131Z,98539.77
2018-05-26T17:34:40.617Z,98540.31
2018-05-26T17:37:08.114Z,98543.19
2018-05-26T17:39:35.608Z,98543.76
2018-05-26T17:42:03.126Z,98548.65
2018-05-26T17:44:30.621Z,98549.67
2018-05-26T17:46:58.116Z,98559.55
2018-05-26T17:49:25.573Z,98553.23
2018-05-26T17:51:53.065Z,98550.78
2018-05-26T17:54:20.527Z,98555.61
2018-05-26T17:56:47.989Z,98557.58
2018-05-26T17:59:15.549Z,98565.56
2018-05-26T18:01:43.426Z,98562.08
2018-05-26T18:04:10.882Z,98568.80
2018-05-26T18:06:38.454Z,98557.08
2018-05-26T18:09:05.930Z,98564.56
2018-05-26T18:11:33.384Z,98571.52
2018-05-26T18:14:01.665Z,98573.00
2018-05-26T18:16:29.153Z,98572.77
2018-05-26T18:18:56.615Z,98576.48
2018-05-26T18:21:24.130Z,98578.61
2018-05-26T18:23:51.621Z,98582.39
2018-05-26T18:26:19.099Z,98584.22
2018-05-26T18:28:46.624Z,98586.36
2018-05-26T18:31:14.170Z,98587.19
2018-05-26T18:33:41.660Z,98591.87
2018-05-26T18:36:09.136Z,98592.75
2018-05-26T18:38:36.598Z,98590.05
2018-05-26T18:41:04.054Z,98593.02
2018-05-26T18:43:31.727Z,98597.03
2018-05-26T18:45:59.210Z,98597.38
2018-05-26T18:48:26.707Z,98594.70
2018-05-26T18:50:54.184Z,98596.66
2018-05-26T18:53:21.637Z,98592.84
2018-05-26T18:55:49.092Z,98596.28
2018-05-26T18:58:16.875Z,98600.21
2018-05-26T19:00:44.361Z,98604.13
2018-05-26T19:03:11.846Z,98608.05
2018-05-26T19:05:39.326Z,98613.09
2018-05-26T19:08:07.041Z,98617.13
2018-05-26T19:10:34.546Z,98617.11
2018-05-26T19:13:02.064Z,98623.94
2018-05-26T19:15:29.594Z,98623.34
2018-05-26T19:17:57.057Z,98625.74
2018-05-26T19:20:24.619Z,98624.38
2018-05-26T19:22:52.080Z,98624.05
2018-05-26T19:25:19.578Z,98633.64
2018-05-26T19:27:47.054Z,98630.60
2018-05-26T19:30:14.519Z,98634.56
2018-05-26T19:32:41.966Z,98630.66
2018-05-26T19:35:09.420Z,98640.80
2018-05-26T19:37:36.992Z,98648.98
2018-05-26T19:40:04.449Z,98647.05
2018-05-26T19:42:31.999Z,98647.83
2018-05-26T19:44:59.500Z,98656.41
2018-05-26T19:47:27.083Z,98665.45
2018-05-26T19:52:45.734Z,98674.56
2018-05-26T20:03:47.165Z,98679.80
2018-05-26T20:06:14.648Z,98682.58
2018-05-26T20:08:42.127Z,98684.43
2018-05-26T20:11:09.633Z,98691.52
2018-05-26T20:13:37.134Z,98688.80
2018-05-26T20:16:04.621Z,98687.31
2018-05-26T20:18:32.076Z,98679.27
2018-05-26T20:20:59.651Z,98677.53
2018-05-26T20:23:27.122Z,98674.17
2018-05-26T20:25:54.638Z,98682.69
2018-05-26T20:28:22.115Z,98676.20
2018-05-26T20:30:53.654Z,98673.70
2018-05-26T20:33:21.137Z,98672.52
2018-05-26T20:35:48.865Z,98667.85
2018-05-26T20:38:18.521Z,98676.54
2018-05-26T20:40:45.985Z,98672.17
2018-05-26T20:43:14.582Z,98670.98
2018-05-26T20:45:42.068Z,98669.59
2018-05-26T20:48:09.539Z,98667.16
2018-05-26T20:50:37.005Z,98665.02
2018-05-26T20:53:04.542Z,98661.59
2018-05-26T20:55:32.032Z,98663.30
2018-05-26T20:57:59.565Z,98655.39
2018-05-26T21:00:28.533Z,98654.05
2018-05-26T21:02:56.126Z,98656.62
2018-05-26T21:05:23.820Z,98657.28
2018-05-26T21:07:51.392Z,98658.13
2018-05-26T21:10:18.924Z,98652.21
2018-05-26T21:12:46.389Z,98650.82
2018-05-26T21:15:13.926Z,98649.14
2018-05-26T21:17:41.492Z,98649.61
2018-05-26T21:20:09.033Z,98653.49
2018-05-26T21:22:36.503Z,98651.48
2018-05-26T21:27:54.397Z,98654.47
2018-05-26T21:30:21.829Z,98657.09
2018-05-26T21:32:49.312Z,98654.54
2018-05-26T21:35:16.800Z,98658.81
2018-05-26T21:37:44.289Z,98653.85
2018-05-26T21:40:11.789Z,98654.45
2018-05-26T21:42:39.276Z,98651.16
2018-05-26T21:45:06.791Z,98649.20
2018-05-26T21:47:34.313Z,98649.38
2018-05-26T21:50:01.804Z,98650.19
2018-05-26T21:52:29.368Z,98648.05
2018-05-26T21:54:57.057Z,98644.36
2018-05-26T21:57:24.526Z,98649.78
2018-05-26T21:59:52.014Z,98645.63
2018-05-26T22:02:19.572Z,98645.45
2018-05-26T22:04:47.207Z,98647.85
2018-05-26T22:07:16.496Z,98653.98
2018-05-26T22:09:44.809Z,98658.33
2018-05-26T22:12:12.275Z,98661.39
2018-05-26T22:14:40.521Z,98666.33
2018-05-26T22:17:08.861Z,98670.55
2018-05-26T22:19:37.705Z,98676.69
2018-05-26T22:22:07.926Z,98687.46
2018-05-26T22:24:36.145Z,98694.89
2018-05-26T22:27:05.653Z,98690.55
2018-05-26T22:29:35.170Z,98690.98
2018-05-26T22:32:02.649Z,98689.01
2018-05-26T22:34:30.166Z,98699.30
2018-05-26T22:36:58.169Z,98697.45
2018-05-26T22:39:25.717Z,98705.78
2018-05-26T22:41:53.646Z,98708.78
2018-05-26T22:44:21.270Z,98710.46
2018-05-26T22:46:48.762Z,98712.67
2018-05-26T22:49:16.776Z,98713.47
2018-05-26T22:51:44.265Z,98710.78
2018-05-26T22:54:11.859Z,98713.03
2018-05-26T22:56:40.467Z,98712.39
2018-05-26T22:59:07.959Z,98710.56
2018-05-26T23:01:35.581Z,98710.05
2018-05-26T23:04:03.758Z,98709.78
2018-05-26T23:06:31.791Z,98708.16
2018-05-26T23:08:59.699Z,98706.34
2018-05-26T23:11:27.213Z,98709.93
2018-05-26T23:13:54.748Z,98704.00
2018-05-26T23:16:22.332Z,98698.75
2018-05-26T23:18:50.478Z,98694.27
2018-05-26T23:21:18.297Z,98692.90
2018-05-26T23:23:46.084Z,98686.31
2018-05-26T23:26:13.822Z,98684.70
2018-05-26T23:28:43.899Z,98676.75
2018-05-26T23:31:14.118Z,98680.08
2018-05-26T23:33:42.675Z,98675.71
2018-05-26T23:36:10.527Z,98666.05
2018-05-26T23:38:38.045Z,98660.26
2018-05-26T23:41:06.439Z,98658.05
2018-05-26T23:43:35.589Z,98660.44
2018-05-26T23:46:06.506Z,98647.80
2018-05-26T23:48:34.373Z,98647.00
2018-05-26T23:51:02.204Z,98645.78
2018-05-26T23:53:30.371Z,98637.61
2018-05-26T23:55:58.050Z,98629.93
2018-05-26T23:58:25.833Z,98632.66
